Time;durP1;ratioP1;P1;durP2;ratioP2;P2;SDS_P1;SDS_P2;PMS_P1;PMS_P2;Temp;Humidity;BMP_temperature;BMP_pressure;BME280_temperature;BME280_humidity;BME280_pressure;Samples;Min_cycle;Max_cycle;Signal;HPM_P1;HPM_P2
2021/09/30 00:01:24;;;;;;;18.50;13.80;;;22.10;59.80;;;;;;6229302;27;82904;-62
2021/09/30 00:04:25;;;;;;;22.45;14.15;;;22.10;59.70;;;;;;6231255;27;83552;-62
2021/09/30 00:07:26;;;;;;;19.63;13.50;;;22.10;59.50;;;;;;6231668;27;83104;-62
2021/09/30 00:10:26;;;;;;;18.90;13.07;;;22.10;59.70;;;;;;6226652;27;83241;-62
2021/09/30 00:13:38;;;;;;;19.08;13.70;;;22.10;59.50;;;;;;6223954;27;83000;-61
2021/09/30 00:17:06;;;;;;;19.85;12.65;;;22.10;59.50;;;;;;6231567;27;83052;-62
2021/09/30 00:39:58;;;;;;;22.80;14.95;;;22.10;59.40;;;;;;6216342;28;83148;-61
2021/09/30 00:46:22;;;;;;;24.25;14.15;;;22.10;59.20;;;;;;6230006;28;84948;-62
2021/09/30 02:39:00;;;;;;;15.25;9.75;;;22.00;59.10;;;;;;6191368;28;87090;-62
2021/09/30 02:58:48;;;;;;;13.57;9.85;;;22.00;59.60;;;;;;6205718;27;88108;-63
2021/09/30 03:01:49;;;;;;;12.38;9.60;;;22.00;59.70;;;;;;6229411;27;82749;-62
2021/09/30 03:04:51;;;;;;;12.15;9.27;;;22.00;59.70;;;;;;6231755;28;83029;-62
2021/09/30 03:07:51;;;;;;;13.13;10.05;;;22.00;59.70;;;;;;6230169;28;83081;-60
2021/09/30 03:10:53;;;;;;;11.77;8.77;;;22.00;59.90;;;;;;6215360;27;83031;-61
2021/09/30 03:13:54;;;;;;;12.32;10.02;;;22.00;59.70;;;;;;6215335;28;85844;-61
2021/09/30 03:17:01;;;;;;;11.02;9.23;;;22.00;60.00;;;;;;6222404;28;83118;-61
2021/09/30 03:20:15;;;;;;;15.05;9.35;;;22.00;59.60;;;;;;6227133;27;85000;-60
2021/09/30 03:23:15;;;;;;;11.40;9.18;;;22.00;59.70;;;;;;6230120;27;83449;-60
2021/09/30 03:26:16;;;;;;;12.77;9.15;;;22.00;59.50;;;;;;6229859;27;81852;-60
2021/09/30 03:29:18;;;;;;;10.32;7.95;;;22.00;59.80;;;;;;6226537;27;83120;-61
2021/09/30 03:32:21;;;;;;;10.23;8.35;;;22.00;59.70;;;;;;6226670;27;82520;-61
2021/09/30 03:35:40;;;;;;;12.40;9.05;;;22.00;59.70;;;;;;6231644;28;80425;-61
2021/09/30 03:38:40;;;;;;;11.43;9.00;;;22.00;59.60;;;;;;6229572;28;82009;-61
2021/09/30 03:41:43;;;;;;;11.93;9.10;;;22.00;59.50;;;;;;6228251;28;83311;-60
2021/09/30 03:44:43;;;;;;;12.35;9.20;;;22.00;59.50;;;;;;6225922;28;83056;-61
2021/09/30 03:47:47;;;;;;;12.95;9.32;;;22.00;59.50;;;;;;6222896;28;83174;-61
2021/09/30 03:54:42;;;;;;;12.90;9.30;;;22.00;59.70;;;;;;6228356;28;82905;-61
2021/09/30 03:57:37;;;;;;;11.30;8.70;;;22.00;59.70;;;;;;6235071;27;83536;-60
2021/09/30 04:00:37;;;;;;;;;;;22.00;59.90;;;;;;6245432;27;83339;-59
2021/09/30 04:03:38;;;;;;;10.63;8.10;;;22.00;59.60;;;;;;6235583;28;82893;-60
2021/09/30 04:06:40;;;;;;;14.90;8.38;;;22.00;60.90;;;;;;6215896;28;80418;-60
2021/09/30 04:09:44;;;;;;;12.00;8.40;;;22.00;60.60;;;;;;6228383;28;83918;-61
2021/09/30 04:12:45;;;;;;;11.50;9.13;;;22.00;59.70;;;;;;6224553;28;82656;-61
2021/09/30 04:15:49;;;;;;;24.73;12.63;;;22.00;60.00;;;;;;6221202;28;81492;-61
2021/09/30 04:18:51;;;;;;;593.60;210.43;;;22.00;60.30;;;;;;6225392;28;84082;-61
2021/09/30 04:21:51;;;;;;;1029.97;406.75;;;22.00;60.40;;;;;;6225427;28;87567;-60
2021/09/30 04:24:52;;;;;;;973.63;387.55;;;22.00;60.70;;;;;;6226889;28;87858;-61
2021/09/30 04:27:53;;;;;;;885.63;340.02;;;22.00;60.70;;;;;;6227316;28;87794;-61
2021/09/30 04:30:53;;;;;;;870.85;353.75;;;22.00;61.50;;;;;;6223748;28;87699;-62
2021/09/30 04:33:59;;;;;;;827.80;325.45;;;22.00;61.20;;;;;;6226084;28;87650;-61
2021/09/30 04:37:01;;;;;;;764.45;302.65;;;22.00;61.70;;;;;;6224884;28;87882;-61
2021/09/30 04:40:02;;;;;;;736.10;293.88;;;22.00;61.60;;;;;;6221351;28;88801;-62
2021/09/30 04:43:02;;;;;;;692.38;277.35;;;22.10;61.30;;;;;;6216095;28;88272;-62
2021/09/30 04:46:03;;;;;;;650.15;250.98;;;22.00;61.20;;;;;;6221252;28;87756;-62
2021/09/30 04:49:08;;;;;;;600.60;223.90;;;22.00;61.50;;;;;;6225244;28;86212;-62
2021/09/30 04:52:09;;;;;;;581.33;221.85;;;22.10;61.80;;;;;;6226607;28;88439;-61
2021/09/30 04:55:11;;;;;;;540.88;195.48;;;22.10;61.80;;;;;;6222807;28;88424;-63
2021/09/30 04:58:11;;;;;;;497.17;181.57;;;22.10;62.00;;;;;;6222227;28;86393;-62
2021/09/30 05:01:13;;;;;;;495.90;178.27;;;22.10;62.00;;;;;;6225729;28;88300;-62
2021/09/30 05:04:21;;;;;;;461.92;167.93;;;22.10;62.00;;;;;;6226504;28;87588;-62
2021/09/30 05:07:22;;;;;;;460.52;162.25;;;22.10;61.50;;;;;;6220311;28;87179;-61
2021/09/30 05:10:30;;;;;;;448.05;158.45;;;22.10;61.00;;;;;;6213252;28;88502;-62
2021/09/30 05:13:39;;;;;;;456.90;156.07;;;22.00;61.00;;;;;;6223280;28;87299;-61
2021/09/30 05:16:39;;;;;;;416.27;149.40;;;22.10;61.20;;;;;;6221510;28;88441;-62
2021/09/30 05:20:00;;;;;;;385.45;142.93;;;22.00;60.80;;;;;;6213365;28;91105;-63
2021/09/30 05:23:00;;;;;;;383.58;138.13;;;22.00;60.90;;;;;;6227349;27;86192;-62
2021/09/30 05:26:01;;;;;;;387.95;135.05;;;22.00;61.20;;;;;;6212147;28;86762;-61
2021/09/30 05:29:03;;;;;;;365.85;130.27;;;22.00;61.10;;;;;;6219116;28;88238;-62
2021/09/30 05:32:04;;;;;;;327.40;122.63;;;22.10;61.60;;;;;;6214777;27;87908;-62
2021/09/30 05:35:23;;;;;;;309.70;113.68;;;22.00;61.30;;;;;;6226460;27;86008;-62
2021/09/30 05:38:26;;;;;;;297.05;111.78;;;22.10;61.20;;;;;;6224727;27;85691;-62
2021/09/30 05:41:27;;;;;;;282.75;104.53;;;22.00;61.20;;;;;;6219851;28;88031;-61
2021/09/30 05:44:29;;;;;;;274.10;103.65;;;22.10;61.80;;;;;;6225890;27;85502;-63
2021/09/30 05:47:32;;;;;;;240.88;96.50;;;22.10;62.00;;;;;;6222688;27;86574;-61
2021/09/30 05:50:32;;;;;;;264.85;99.00;;;22.10;62.00;;;;;;6216450;28;86651;-62
2021/09/30 05:53:53;;;;;;;241.38;92.15;;;22.10;61.90;;;;;;6224212;27;84547;-60
2021/09/30 05:57:15;;;;;;;214.35;83.95;;;22.10;61.50;;;;;;6228417;28;85845;-61
2021/09/30 06:04:45;;;;;;;204.20;77.50;;;22.10;61.50;;;;;;6226996;28;85823;-61
2021/09/30 06:10:25;;;;;;;197.00;76.28;;;22.10;62.10;;;;;;6218410;28;83507;-60
2021/09/30 06:13:46;;;;;;;195.90;74.50;;;22.10;61.70;;;;;;6213940;28;85942;-61
2021/09/30 06:16:50;;;;;;;186.82;71.97;;;22.10;62.00;;;;;;6220211;28;88831;-61
2021/09/30 06:19:52;;;;;;;191.37;73.53;;;22.10;62.10;;;;;;6221662;28;85600;-61
2021/09/30 06:22:52;;;;;;;181.73;69.55;;;22.10;61.80;;;;;;6241719;28;85652;-61
2021/09/30 06:25:53;;;;;;;172.43;69.72;;;22.00;61.90;;;;;;6221381;28;83083;-59
2021/09/30 06:28:54;;;;;;;159.70;66.68;;;22.10;61.90;;;;;;6226053;28;83904;-60
2021/09/30 06:31:54;;;;;;;152.63;62.55;;;22.10;61.40;;;;;;6227424;27;84246;-60
2021/09/30 06:35:15;;;;;;;156.27;63.80;;;22.10;61.70;;;;;;6191964;28;83251;-60
2021/09/30 06:38:21;;;;;;;155.02;63.90;;;22.10;61.30;;;;;;6170551;28;85674;-62
2021/09/30 06:41:22;;;;;;;141.80;56.83;;;22.10;61.50;;;;;;6166093;28;83262;-62
2021/09/30 06:44:42;;;;;;;120.22;49.00;;;22.00;62.30;;;;;;6171374;28;83434;-61
2021/09/30 06:48:05;;;;;;;115.00;48.58;;;22.00;61.90;;;;;;6171539;28;83318;-62
2021/09/30 06:51:19;;;;;;;102.43;45.75;;;22.00;61.90;;;;;;6185591;28;85568;-62
2021/09/30 06:54:21;;;;;;;109.80;47.78;;;22.00;62.20;;;;;;6163250;28;86013;-61
2021/09/30 06:57:54;;;;;;;100.22;43.55;;;22.00;61.00;;;;;;6168642;28;83973;-62
2021/09/30 07:01:24;;;;;;;94.03;41.15;;;22.10;61.20;;;;;;6170249;28;84022;-61
2021/09/30 07:04:43;;;;;;;77.43;34.92;;;22.10;61.40;;;;;;6174440;28;87277;-62
2021/09/30 07:08:14;;;;;;;75.35;32.42;;;22.00;61.60;;;;;;6167629;28;85686;-62
2021/09/30 07:11:15;;;;;;;61.60;29.63;;;22.00;61.70;;;;;;6175850;28;83340;-62
2021/09/30 07:14:15;;;;;;;53.33;25.98;;;22.00;62.30;;;;;;6173828;28;83472;-61
2021/09/30 07:17:16;;;;;;;47.10;24.58;;;22.00;61.60;;;;;;6176451;28;84695;-61
2021/09/30 07:20:16;;;;;;;41.75;21.58;;;22.00;61.50;;;;;;6169529;28;82978;-61
2021/09/30 07:23:17;;;;;;;46.47;22.20;;;22.00;62.30;;;;;;6187961;28;84741;-61
2021/09/30 07:26:17;;;;;;;33.30;19.48;;;22.00;61.50;;;;;;6174896;28;83302;-62
2021/09/30 07:29:18;;;;;;;36.22;18.60;;;22.00;61.40;;;;;;6183129;28;83917;-61
2021/09/30 07:32:18;;;;;;;29.88;17.05;;;22.10;61.30;;;;;;6178897;28;82926;-62
2021/09/30 07:35:19;;;;;;;29.83;16.27;;;22.10;61.00;;;;;;6219281;28;83208;-62
2021/09/30 07:38:20;;;;;;;26.50;16.02;;;22.10;60.90;;;;;;6226699;27;83454;-61
2021/09/30 07:41:21;;;;;;;26.10;14.98;;;22.10;60.70;;;;;;6225575;28;83212;-61
2021/09/30 07:44:22;;;;;;;23.40;14.20;;;22.20;60.60;;;;;;6221374;28;83171;-61
2021/09/30 07:47:24;;;;;;;24.92;14.65;;;22.10;60.60;;;;;;6226609;27;83023;-61
2021/09/30 07:50:24;;;;;;;24.42;13.55;;;22.20;60.40;;;;;;6223113;28;83179;-61
2021/09/30 07:53:25;;;;;;;22.55;13.07;;;22.10;60.30;;;;;;6213236;27;84263;-61
2021/09/30 07:56:27;;;;;;;27.25;15.23;;;22.20;60.30;;;;;;6223056;28;83409;-62
2021/09/30 07:59:27;;;;;;;21.58;13.52;;;22.20;60.20;;;;;;6218704;27;83357;-62
2021/09/30 08:02:28;;;;;;;25.45;14.75;;;22.20;59.90;;;;;;6228934;27;82864;-61
2021/09/30 08:05:28;;;;;;;22.17;14.85;;;22.20;59.90;;;;;;6231670;28;83150;-61
2021/09/30 08:08:29;;;;;;;22.50;15.43;;;22.20;59.60;;;;;;6233573;28;82870;-62
2021/09/30 08:11:29;;;;;;;21.90;14.77;;;22.30;59.60;;;;;;6230757;27;83629;-61
2021/09/30 08:14:30;;;;;;;21.63;14.05;;;22.30;59.00;;;;;;6231122;27;83215;-61
2021/09/30 08:17:30;;;;;;;21.13;14.30;;;22.30;58.80;;;;;;6222600;27;83639;-61
2021/09/30 08:20:31;;;;;;;23.75;14.45;;;22.30;58.50;;;;;;6232265;28;83166;-61
2021/09/30 08:23:32;;;;;;;22.77;13.15;;;22.20;58.30;;;;;;6229880;28;84295;-62
2021/09/30 08:26:32;;;;;;;16.05;11.85;;;22.20;58.30;;;;;;6233818;27;83589;-62
2021/09/30 08:29:33;;;;;;;19.70;13.63;;;22.20;58.40;;;;;;6232422;28;84031;-61
2021/09/30 08:32:34;;;;;;;16.75;11.57;;;22.20;58.60;;;;;;6227524;27;82927;-61
2021/09/30 08:35:34;;;;;;;17.52;13.02;;;22.20;58.60;;;;;;6224715;27;84038;-61
2021/09/30 08:38:35;;;;;;;21.98;13.00;;;22.10;58.60;;;;;;6229575;27;84188;-61
2021/09/30 08:41:35;;;;;;;15.85;11.52;;;22.20;58.80;;;;;;6230456;27;83279;-61
2021/09/30 08:44:36;;;;;;;17.90;11.50;;;22.20;58.90;;;;;;6231757;27;83359;-61
2021/09/30 08:47:36;;;;;;;17.33;11.23;;;22.20;58.90;;;;;;6231925;28;83284;-61
2021/09/30 08:50:38;;;;;;;16.95;11.20;;;22.20;58.90;;;;;;6225671;27;84441;-61
2021/09/30 08:53:39;;;;;;;15.88;11.18;;;22.20;58.90;;;;;;6219883;27;83076;-62
2021/09/30 08:56:39;;;;;;;19.13;10.85;;;22.20;58.90;;;;;;6221732;27;84084;-61
2021/09/30 08:59:40;;;;;;;13.57;10.32;;;22.30;59.00;;;;;;6230042;27;83557;-61
2021/09/30 09:02:41;;;;;;;16.92;11.32;;;22.30;59.00;;;;;;6228801;27;83676;-61
2021/09/30 09:05:41;;;;;;;14.02;10.02;;;22.30;59.00;;;;;;6223971;27;83058;-61
2021/09/30 09:08:42;;;;;;;16.30;11.48;;;22.30;59.00;;;;;;6226612;28;85180;-62
2021/09/30 09:11:42;;;;;;;14.50;10.48;;;22.30;59.00;;;;;;6230472;28;82969;-61
2021/09/30 09:14:43;;;;;;;14.02;10.63;;;22.40;59.00;;;;;;6228390;27;83014;-61
2021/09/30 09:17:43;;;;;;;13.32;9.73;;;22.40;59.00;;;;;;6230096;27;83642;-61
2021/09/30 09:20:44;;;;;;;12.82;9.43;;;22.30;58.90;;;;;;6232601;28;81910;-61
2021/09/30 09:23:44;;;;;;;13.60;9.98;;;22.40;59.00;;;;;;6226235;28;81523;-61
2021/09/30 09:26:45;;;;;;;14.20;10.02;;;22.40;59.00;;;;;;6224787;27;83218;-61
2021/09/30 09:29:45;;;;;;;13.80;9.43;;;22.40;59.00;;;;;;6230563;27;82892;-61
2021/09/30 09:32:46;;;;;;;12.80;8.93;;;22.40;58.90;;;;;;6231483;28;81841;-62
2021/09/30 09:35:49;;;;;;;13.63;9.38;;;22.40;58.90;;;;;;6232309;28;80526;-61
2021/09/30 09:38:49;;;;;;;13.48;9.55;;;22.50;59.00;;;;;;6233060;27;80526;-61
2021/09/30 09:41:50;;;;;;;14.05;9.27;;;22.50;59.70;;;;;;6232681;27;80902;-61
2021/09/30 09:44:50;;;;;;;13.70;9.45;;;22.50;59.00;;;;;;6227591;28;80548;-61
2021/09/30 09:47:51;;;;;;;14.13;9.10;;;22.50;59.00;;;;;;6230694;27;81608;-62
2021/09/30 09:50:51;;;;;;;14.15;9.13;;;22.50;59.00;;;;;;6228554;27;81655;-62
2021/09/30 09:53:52;;;;;;;12.18;8.40;;;22.50;59.10;;;;;;6229976;28;80869;-61
2021/09/30 09:56:52;;;;;;;11.73;8.98;;;22.50;59.20;;;;;;6231098;27;81631;-62
2021/09/30 09:59:55;;;;;;;11.15;8.32;;;22.50;59.20;;;;;;6233116;27;81424;-61
2021/09/30 10:02:56;;;;;;;9.55;7.85;;;22.50;59.30;;;;;;6230886;27;80616;-61
2021/09/30 10:05:57;;;;;;;11.70;8.43;;;22.60;59.50;;;;;;6230393;27;80723;-62
2021/09/30 10:08:57;;;;;;;13.00;8.85;;;22.60;59.60;;;;;;6231842;28;81380;-61
2021/09/30 10:11:58;;;;;;;11.00;8.00;;;22.50;59.70;;;;;;6225067;27;82662;-61
2021/09/30 10:14:58;;;;;;;12.55;8.40;;;22.50;59.80;;;;;;6223776;27;80591;-61
2021/09/30 10:17:58;;;;;;;11.43;7.70;;;22.60;59.80;;;;;;6231301;27;80713;-61
2021/09/30 10:20:59;;;;;;;10.32;7.80;;;22.60;59.80;;;;;;6232538;27;81009;-62
2021/09/30 10:24:02;;;;;;;10.18;7.45;;;22.60;59.80;;;;;;6229478;28;80466;-62
2021/09/30 10:27:02;;;;;;;11.95;8.48;;;22.60;59.90;;;;;;6233640;27;82989;-62
2021/09/30 10:30:03;;;;;;;12.15;7.82;;;22.60;59.80;;;;;;6232026;28;81235;-62
2021/09/30 10:33:03;;;;;;;8.20;6.93;;;22.60;59.80;;;;;;6226548;27;81579;-63
2021/09/30 10:36:04;;;;;;;10.55;7.32;;;22.60;60.00;;;;;;6228806;27;80335;-62
2021/09/30 10:39:04;;;;;;;11.77;7.38;;;22.60;59.70;;;;;;6231889;27;80503;-62
2021/09/30 10:42:05;;;;;;;9.80;7.15;;;22.60;59.70;;;;;;6229759;27;80533;-62
2021/09/30 10:45:06;;;;;;;10.02;7.43;;;22.60;59.70;;;;;;6231861;28;81010;-62
2021/09/30 10:48:06;;;;;;;14.45;8.68;;;22.60;59.50;;;;;;6229624;28;80680;-62
2021/09/30 10:51:07;;;;;;;15.60;8.70;;;22.60;59.80;;;;;;6203726;28;82868;-62
2021/09/30 10:54:07;;;;;;;12.68;9.35;;;22.70;59.80;;;;;;6196104;28;80929;-61
2021/09/30 10:57:08;;;;;;;14.88;9.35;;;22.70;59.80;;;;;;6197857;28;80498;-63
2021/09/30 11:00:09;;;;;;;14.38;9.10;;;22.70;59.60;;;;;;6205776;28;80743;-63
2021/09/30 11:03:10;;;;;;;17.70;9.60;;;22.70;59.50;;;;;;6205504;27;80382;-63
2021/09/30 11:06:11;;;;;;;11.15;7.60;;;22.70;59.50;;;;;;6202565;28;81728;-62
2021/09/30 11:09:14;;;;;;;9.73;6.47;;;22.60;59.80;;;;;;6203231;28;80336;-62
2021/09/30 11:12:14;;;;;;;11.73;5.80;;;22.60;59.90;;;;;;6203739;27;80359;-63
2021/09/30 11:15:15;;;;;;;9.85;4.60;;;22.50;59.90;;;;;;6206152;27;80348;-62
2021/09/30 11:18:20;;;;;;;6.97;4.23;;;22.60;59.90;;;;;;6203726;27;80368;-61
2021/09/30 11:21:21;;;;;;;6.55;4.22;;;22.50;59.90;;;;;;6201960;28;81261;-61
2021/09/30 11:24:21;;;;;;;6.18;3.53;;;22.50;60.00;;;;;;6220009;28;80030;-61
2021/09/30 11:27:22;;;;;;;6.32;4.18;;;22.40;60.00;;;;;;6231409;27;81564;-61
2021/09/30 11:30:22;;;;;;;5.72;3.60;;;22.50;59.80;;;;;;6230366;27;81745;-61
2021/09/30 11:33:23;;;;;;;8.40;3.45;;;22.50;59.90;;;;;;6232180;27;82342;-63
2021/09/30 11:36:24;;;;;;;7.00;3.92;;;22.50;59.90;;;;;;6234542;27;80417;-61
2021/09/30 11:39:24;;;;;;;5.25;3.63;;;22.50;59.90;;;;;;6231588;27;81687;-61
2021/09/30 11:42:25;;;;;;;6.38;3.63;;;22.50;59.80;;;;;;6230920;27;81469;-61
2021/09/30 11:45:25;;;;;;;5.75;3.10;;;22.50;60.00;;;;;;6234991;27;81939;-60
2021/09/30 11:48:26;;;;;;;9.77;3.63;;;22.50;59.80;;;;;;6234957;27;80815;-62
2021/09/30 11:51:26;;;;;;;3.65;2.85;;;22.50;59.90;;;;;;6222532;27;81580;-62
2021/09/30 11:54:27;;;;;;;3.97;2.58;;;22.50;59.90;;;;;;6231739;28;82876;-62
2021/09/30 11:57:28;;;;;;;4.15;3.05;;;22.50;60.00;;;;;;6225353;28;82571;-62
2021/09/30 12:00:28;;;;;;;6.13;2.88;;;22.50;60.00;;;;;;6234718;28;80386;-61
2021/09/30 12:03:29;;;;;;;5.47;2.90;;;22.50;60.10;;;;;;6232573;28;80460;-64
2021/09/30 12:06:29;;;;;;;4.55;2.80;;;22.50;60.10;;;;;;6230463;28;80366;-64
2021/09/30 12:09:30;;;;;;;4.35;2.53;;;22.50;60.10;;;;;;6232029;27;80307;-64
2021/09/30 12:12:30;;;;;;;4.07;2.78;;;22.50;60.10;;;;;;6233313;28;81807;-63
2021/09/30 12:15:31;;;;;;;3.83;2.45;;;22.50;60.00;;;;;;6232615;27;81463;-63
2021/09/30 12:18:32;;;;;;;4.07;2.50;;;22.40;60.10;;;;;;6229427;27;82830;-63
2021/09/30 12:21:33;;;;;;;4.72;2.60;;;22.40;60.10;;;;;;6234542;27;82539;-64
2021/09/30 12:24:33;;;;;;;3.90;2.05;;;22.50;60.10;;;;;;6228012;28;81712;-63
2021/09/30 12:27:34;;;;;;;4.50;2.50;;;22.50;60.00;;;;;;6249726;27;80563;-64
2021/09/30 12:30:34;;;;;;;2.78;2.20;;;22.50;60.00;;;;;;6232983;28;80593;-64
2021/09/30 12:33:35;;;;;;;3.55;2.22;;;22.50;60.00;;;;;;6234032;27;81607;-62
2021/09/30 12:36:35;;;;;;;2.80;1.90;;;22.50;59.80;;;;;;6232214;27;80748;-63
2021/09/30 12:39:36;;;;;;;2.65;1.90;;;22.50;59.80;;;;;;6222542;27;80707;-63
2021/09/30 12:42:36;;;;;;;4.13;2.40;;;22.50;59.70;;;;;;6227625;27;80724;-62
2021/09/30 12:45:37;;;;;;;5.00;2.92;;;22.50;59.70;;;;;;6234402;27;81031;-62
2021/09/30 12:48:37;;;;;;;7.72;4.32;;;22.40;59.50;;;;;;6228162;27;82051;-63
2021/09/30 12:51:38;;;;;;;12.55;5.90;;;22.40;59.40;;;;;;6225020;27;80715;-63
2021/09/30 12:54:40;;;;;;;14.65;7.20;;;22.40;59.40;;;;;;6226498;27;80940;-63
2021/09/30 12:57:40;;;;;;;15.45;7.07;;;22.40;59.30;;;;;;6235137;27;80809;-62
2021/09/30 13:00:41;;;;;;;20.52;9.75;;;22.40;59.20;;;;;;6227587;28;80598;-62
2021/09/30 13:03:41;;;;;;;19.00;9.45;;;22.40;59.10;;;;;;6224070;28;80371;-62
2021/09/30 13:06:42;;;;;;;23.08;11.75;;;22.40;59.10;;;;;;6231391;27;80822;-61
2021/09/30 13:09:43;;;;;;;26.88;12.40;;;22.40;58.90;;;;;;6224145;27;83459;-63
2021/09/30 13:12:43;;;;;;;29.38;12.93;;;22.40;59.00;;;;;;6229321;28;84313;-62
2021/09/30 13:15:44;;;;;;;29.98;12.65;;;22.40;59.00;;;;;;6230720;27;83010;-61
2021/09/30 13:18:44;;;;;;;22.10;10.70;;;22.50;59.00;;;;;;6229965;27;83358;-62
2021/09/30 13:21:45;;;;;;;24.08;9.85;;;22.50;59.00;;;;;;6228340;28;83201;-62
2021/09/30 13:24:45;;;;;;;20.15;8.68;;;22.50;59.00;;;;;;6222548;28;82822;-62
2021/09/30 13:27:46;;;;;;;18.95;8.40;;;22.40;58.80;;;;;;6226960;28;87094;-63
2021/09/30 13:30:47;;;;;;;20.63;7.85;;;22.40;58.80;;;;;;6233295;28;81028;-63
2021/09/30 13:33:47;;;;;;;14.60;6.68;;;22.40;58.80;;;;;;6233178;28;80768;-63
2021/09/30 13:36:49;;;;;;;12.57;6.65;;;22.40;58.80;;;;;;6233854;27;80426;-63
2021/09/30 13:39:50;;;;;;;12.85;5.75;;;22.40;58.70;;;;;;6234063;28;80791;-63
2021/09/30 13:42:50;;;;;;;8.07;5.03;;;22.40;58.70;;;;;;6231804;28;80739;-63
2021/09/30 13:45:51;;;;;;;11.80;5.30;;;22.40;58.70;;;;;;6233694;28;81024;-63
2021/09/30 13:48:51;;;;;;;11.80;5.10;;;22.30;58.70;;;;;;6231757;27;81361;-63
2021/09/30 13:51:52;;;;;;;10.48;4.68;;;22.40;58.70;;;;;;6231621;27;81187;-63
2021/09/30 13:54:52;;;;;;;11.65;4.57;;;22.40;58.60;;;;;;6228675;27;80236;-64
2021/09/30 13:57:53;;;;;;;7.38;3.85;;;22.40;58.50;;;;;;6227039;27;80459;-63
2021/09/30 14:00:53;;;;;;;6.22;3.55;;;22.40;58.50;;;;;;6229923;28;80497;-63
2021/09/30 14:03:54;;;;;;;7.43;3.30;;;22.30;58.30;;;;;;6229415;28;81207;-63
2021/09/30 14:06:56;;;;;;;9.25;4.03;;;22.40;58.60;;;;;;6223282;27;81768;-67
2021/09/30 14:09:58;;;;;;;18.33;5.97;;;22.40;58.60;;;;;;6221261;28;83366;-63
2021/09/30 14:12:59;;;;;;;818.25;308.02;;;22.40;58.60;;;;;;6227783;27;80539;-63
2021/09/30 14:15:59;;;;;;;1234.43;467.20;;;22.30;58.90;;;;;;6224397;28;85919;-63
2021/09/30 14:19:00;;;;;;;1222.70;482.83;;;22.30;59.30;;;;;;6219468;28;87247;-63
2021/09/30 14:22:00;;;;;;;985.15;390.10;;;22.40;59.50;;;;;;6222105;27;86504;-63
2021/09/30 14:25:01;;;;;;;878.78;353.85;;;22.40;59.30;;;;;;6216668;28;86111;-63
2021/09/30 14:28:01;;;;;;;750.30;291.33;;;22.50;59.20;;;;;;6222516;28;85956;-65
2021/09/30 14:31:02;;;;;;;719.03;278.10;;;22.50;59.20;;;;;;6219745;28;86623;-65
2021/09/30 14:34:02;;;;;;;796.67;308.73;;;22.50;59.10;;;;;;6221173;28;86934;-63
2021/09/30 14:37:03;;;;;;;1215.38;482.27;;;22.50;58.90;;;;;;6225362;27;85721;-63
2021/09/30 14:40:04;;;;;;;1391.13;544.05;;;22.40;59.40;;;;;;6222160;27;85680;-62
2021/09/30 14:43:04;;;;;;;1025.50;415.92;;;22.40;59.70;;;;;;6220525;27;86314;-63
2021/09/30 14:46:05;;;;;;;908.70;373.13;;;22.40;59.60;;;;;;6220849;28;85941;-62
2021/09/30 14:49:06;;;;;;;850.28;340.13;;;22.50;59.40;;;;;;6215325;28;85757;-62
2021/09/30 14:52:06;;;;;;;783.35;308.95;;;22.50;59.20;;;;;;6220933;28;87097;-63
2021/09/30 14:55:07;;;;;;;727.78;289.88;;;22.50;59.30;;;;;;6213557;28;86891;-62
2021/09/30 14:58:08;;;;;;;675.28;262.98;;;22.50;59.10;;;;;;6219216;28;86932;-64
2021/09/30 15:01:08;;;;;;;647.70;247.95;;;22.50;58.90;;;;;;6216815;28;86309;-64
2021/09/30 15:04:09;;;;;;;612.75;231.85;;;22.50;58.90;;;;;;6220326;28;85597;-64
2021/09/30 15:07:09;;;;;;;574.72;218.63;;;22.50;59.00;;;;;;6216467;28;85915;-64
2021/09/30 15:10:10;;;;;;;555.15;204.32;;;22.40;59.20;;;;;;6220329;28;85985;-63
2021/09/30 15:13:10;;;;;;;538.97;193.73;;;22.40;59.10;;;;;;6221666;27;86841;-64
2021/09/30 15:16:11;;;;;;;510.45;184.30;;;22.40;59.10;;;;;;6222864;28;86573;-67
2021/09/30 15:19:22;;;;;;;476.77;171.75;;;22.40;59.10;;;;;;6219361;28;85461;-64
2021/09/30 15:22:24;;;;;;;474.17;162.85;;;22.40;59.30;;;;;;6219847;28;85621;-64
2021/09/30 15:25:25;;;;;;;456.25;155.15;;;22.50;59.20;;;;;;6216706;27;87586;-64
2021/09/30 15:28:26;;;;;;;417.67;146.65;;;22.50;59.30;;;;;;6213451;27;85532;-63
2021/09/30 15:31:27;;;;;;;404.45;143.18;;;22.50;59.30;;;;;;6216811;28;86383;-63
2021/09/30 15:34:27;;;;;;;402.98;141.45;;;22.50;59.40;;;;;;6216174;28;86169;-64
2021/09/30 15:37:28;;;;;;;377.67;135.18;;;22.50;59.20;;;;;;6218130;28;85478;-63
2021/09/30 15:40:28;;;;;;;347.23;129.43;;;22.50;59.20;;;;;;6222691;28;85787;-62
2021/09/30 15:43:29;;;;;;;362.83;126.15;;;22.50;59.20;;;;;;6215598;28;85500;-64
2021/09/30 15:46:29;;;;;;;353.02;125.38;;;22.50;59.10;;;;;;6218817;28;85923;-65
2021/09/30 15:49:30;;;;;;;301.00;112.75;;;22.50;58.90;;;;;;6215989;28;85857;-63
2021/09/30 15:52:30;;;;;;;305.27;108.00;;;22.50;58.80;;;;;;6219647;28;85769;-63
2021/09/30 15:55:31;;;;;;;281.48;103.65;;;22.50;58.70;;;;;;6218730;28;85905;-63
2021/09/30 15:58:32;;;;;;;280.88;101.10;;;22.60;58.50;;;;;;6221900;28;86637;-62
2021/09/30 16:01:33;;;;;;;253.32;92.88;;;22.60;58.50;;;;;;6215250;28;85576;-63
2021/09/30 16:04:33;;;;;;;258.73;93.03;;;22.60;58.40;;;;;;6216917;28;85324;-63
2021/09/30 16:07:34;;;;;;;224.65;87.38;;;22.60;58.30;;;;;;6222188;28;84264;-63
2021/09/30 16:10:34;;;;;;;214.02;81.78;;;22.60;58.20;;;;;;6220173;28;83735;-63
2021/09/30 16:13:35;;;;;;;221.40;79.50;;;22.60;58.20;;;;;;6222166;28;83345;-62
2021/09/30 16:16:35;;;;;;;202.13;80.78;;;22.60;58.10;;;;;;6221467;28;83463;-62
2021/09/30 16:19:36;;;;;;;223.88;80.40;;;22.60;58.40;;;;;;6222841;28;83071;-62
2021/09/30 16:22:36;;;;;;;187.77;74.15;;;22.60;58.80;;;;;;6228430;27;84585;-62
2021/09/30 16:25:37;;;;;;;206.07;76.28;;;22.60;59.40;;;;;;6223118;27;83515;-62
2021/09/30 16:28:37;;;;;;;194.30;75.28;;;22.70;59.80;;;;;;6218084;28;83746;-62
2021/09/30 16:31:38;;;;;;;193.23;74.22;;;22.70;60.10;;;;;;6223326;28;82928;-63
2021/09/30 16:34:38;;;;;;;187.48;70.72;;;22.70;60.30;;;;;;6223288;28;83835;-62
2021/09/30 16:37:39;;;;;;;162.98;65.25;;;22.70;61.00;;;;;;6220459;28;83214;-64
2021/09/30 16:40:40;;;;;;;154.73;63.55;;;22.80;60.70;;;;;;6220519;27;83594;-62
2021/09/30 16:43:40;;;;;;;149.07;59.75;;;23.20;59.40;;;;;;6224204;27;83051;-62
2021/09/30 16:46:41;;;;;;;145.00;58.63;;;23.10;59.70;;;;;;6226677;28;84413;-61
2021/09/30 16:49:41;;;;;;;142.18;58.50;;;23.00;59.50;;;;;;6224589;27;88922;-64
2021/09/30 16:52:45;;;;;;;142.73;55.35;;;23.00;59.50;;;;;;6226510;28;84209;-64
2021/09/30 16:55:46;;;;;;;135.10;48.70;;;23.00;59.90;;;;;;6226372;27;83129;-65
2021/09/30 16:58:47;;;;;;;134.65;52.40;;;23.00;59.90;;;;;;6223258;28;83461;-63
2021/09/30 17:01:47;;;;;;;126.18;51.33;;;23.00;60.60;;;;;;6214904;28;84634;-64
2021/09/30 17:04:48;;;;;;;121.95;48.83;;;23.00;60.20;;;;;;6219393;27;83147;-64
2021/09/30 17:07:48;;;;;;;116.43;45.80;;;22.90;60.60;;;;;;6219165;28;82983;-63
2021/09/30 17:10:49;;;;;;;124.95;49.92;;;22.90;60.30;;;;;;6229572;27;84339;-62
2021/09/30 17:13:49;;;;;;;118.72;46.47;;;22.90;60.30;;;;;;6223083;28;83161;-62
2021/09/30 17:16:50;;;;;;;113.32;43.78;;;22.90;60.90;;;;;;6225014;27;82999;-62
2021/09/30 17:19:53;;;;;;;97.85;41.72;;;23.00;60.40;;;;;;6228011;28;83084;-62
2021/09/30 17:22:53;;;;;;;96.85;39.92;;;22.90;60.30;;;;;;6220024;28;83509;-63
2021/09/30 17:25:54;;;;;;;96.50;39.35;;;22.90;60.00;;;;;;6225834;27;83017;-63
2021/09/30 17:28:54;;;;;;;94.30;38.67;;;22.90;60.00;;;;;;6228467;27;83938;-62
2021/09/30 17:31:54;;;;;;;95.30;36.90;;;22.90;59.90;;;;;;6230960;27;83156;-64
2021/09/30 17:34:57;;;;;;;90.63;36.45;;;22.90;60.30;;;;;;6230742;27;83001;-64
2021/09/30 17:37:57;;;;;;;79.68;33.55;;;22.90;60.40;;;;;;6242729;27;85739;-64
2021/09/30 17:40:58;;;;;;;79.20;33.03;;;23.00;61.00;;;;;;6227408;27;83359;-63
2021/09/30 17:43:59;;;;;;;72.68;30.58;;;23.00;60.50;;;;;;6217163;28;82875;-63
2021/09/30 17:47:00;;;;;;;73.93;30.45;;;23.00;60.10;;;;;;6221011;27;84520;-62
2021/09/30 17:50:01;;;;;;;65.43;28.35;;;23.00;59.70;;;;;;6230036;28;84479;-62
2021/09/30 17:53:01;;;;;;;59.90;25.23;;;23.00;59.50;;;;;;6221922;28;83741;-62
2021/09/30 17:56:02;;;;;;;65.85;27.25;;;22.90;59.70;;;;;;6219255;28;83350;-63
2021/09/30 17:59:04;;;;;;;61.03;25.75;;;22.90;59.70;;;;;;6226173;27;82954;-62
2021/09/30 18:02:04;;;;;;;58.08;24.95;;;22.90;59.60;;;;;;6230332;27;83509;-62